createdAt,value
2023-03-26T00:01:15.573Z,83.35
2023-03-26T00:03:45.146Z,83.36
2023-03-26T00:06:14.127Z,82.98
2023-03-26T00:08:42.796Z,83.38
2023-03-26T00:11:11.321Z,82.83
2023-03-26T00:13:38.860Z,82.78
2023-03-26T00:16:05.706Z,83.52
2023-03-26T00:18:35.006Z,83.02
2023-03-26T00:21:03.637Z,82.84
2023-03-26T00:23:31.690Z,82.96
2023-03-26T00:25:58.278Z,83.50
2023-03-26T00:28:26.325Z,83.73
2023-03-26T00:31:01.526Z,83.02
2023-03-26T00:33:28.709Z,82.68
2023-03-26T00:35:58.895Z,82.79
2023-03-26T00:38:26.545Z,83.20
2023-03-26T00:40:54.499Z,82.65
2023-03-26T00:43:22.247Z,83.28
2023-03-26T00:45:51.782Z,82.47
2023-03-26T00:48:19.124Z,83.16
2023-03-26T00:50:47.238Z,82.81
2023-03-26T00:53:16.093Z,82.79
2023-03-26T00:55:45.125Z,83.16
2023-03-26T00:58:13.431Z,82.95
2023-03-26T01:00:48.464Z,83.25
2023-03-26T01:03:27.204Z,84.07
2023-03-26T01:06:02.772Z,83.61
2023-03-26T01:08:39.359Z,83.60
2023-03-26T01:11:14.242Z,83.40
2023-03-26T01:13:54.109Z,83.99
2023-03-26T01:16:31.443Z,83.69
2023-03-26T01:18:58.869Z,83.28
2023-03-26T01:21:30.248Z,83.67
2023-03-26T01:24:07.906Z,83.75
2023-03-26T01:26:56.303Z,83.55
2023-03-26T01:29:29.569Z,83.53
2023-03-26T01:32:19.622Z,84.01
2023-03-26T01:35:08.231Z,83.31
2023-03-26T01:37:53.613Z,84.13
2023-03-26T01:40:25.518Z,82.93
2023-03-26T01:43:03.921Z,83.23
2023-03-26T01:45:34.736Z,83.22
2023-03-26T01:48:01.850Z,83.47
2023-03-26T01:50:28.495Z,83.48
2023-03-26T01:52:55.292Z,82.56
2023-03-26T01:55:26.341Z,82.87
2023-03-26T01:58:15.972Z,82.41
2023-03-26T02:00:49.213Z,83.18
2023-03-26T02:03:22.461Z,82.52
2023-03-26T02:06:11.232Z,82.98
2023-03-26T02:08:42.541Z,82.45
2023-03-26T02:11:16.017Z,82.67
2023-03-26T02:13:45.372Z,82.38
2023-03-26T02:16:17.408Z,82.17
2023-03-26T02:18:46.092Z,82.27
2023-03-26T02:21:21.877Z,82.00
2023-03-26T02:24:02.784Z,81.48
2023-03-26T02:26:31.953Z,81.53
2023-03-26T02:28:59.286Z,81.37
2023-03-26T02:31:28.716Z,81.83
2023-03-26T02:33:55.664Z,81.86
2023-03-26T02:36:27.343Z,81.60
2023-03-26T02:38:55.843Z,81.67
2023-03-26T02:41:22.511Z,81.36
2023-03-26T02:43:49.116Z,81.82
2023-03-26T02:46:16.105Z,81.69
2023-03-26T02:48:43.996Z,81.18
2023-03-26T02:51:10.873Z,81.34
2023-03-26T02:53:37.577Z,81.54
2023-03-26T02:56:04.628Z,81.66
2023-03-26T02:58:31.267Z,81.59
2023-03-26T03:00:57.860Z,81.68
2023-03-26T03:03:26.382Z,81.50
2023-03-26T03:05:54.794Z,82.26
2023-03-26T03:08:24.220Z,81.66
2023-03-26T03:11:02.033Z,82.32
2023-03-26T03:13:29.333Z,82.46
2023-03-26T03:15:56.269Z,82.67
2023-03-26T03:18:23.131Z,83.05
2023-03-26T03:20:50.043Z,82.88
2023-03-26T03:23:16.702Z,82.86
2023-03-26T03:25:43.473Z,83.27
2023-03-26T03:28:10.406Z,82.75
2023-03-26T03:30:37.364Z,82.73
2023-03-26T03:33:06.141Z,82.54
2023-03-26T03:35:33.692Z,83.03
2023-03-26T03:38:00.852Z,83.05
2023-03-26T03:40:27.671Z,83.27
2023-03-26T03:42:54.329Z,82.95
2023-03-26T03:45:21.170Z,83.56
2023-03-26T03:47:47.794Z,83.88
2023-03-26T03:50:14.396Z,83.46
2023-03-26T03:52:40.937Z,83.39
2023-03-26T03:55:07.792Z,83.72
2023-03-26T03:57:34.660Z,83.06
2023-03-26T04:00:01.466Z,83.31
2023-03-26T04:02:34.600Z,83.19
2023-03-26T04:05:03.194Z,82.89
2023-03-26T04:07:33.130Z,83.13
2023-03-26T04:10:02.022Z,83.25
2023-03-26T04:12:29.333Z,83.19
2023-03-26T04:14:56.682Z,83.09
2023-03-26T04:17:23.385Z,82.94
2023-03-26T04:19:52.949Z,82.63
2023-03-26T04:22:19.923Z,82.67
2023-03-26T04:24:48.760Z,82.80
2023-03-26T04:27:20.254Z,82.55
2023-03-26T04:29:50.308Z,82.73
2023-03-26T04:32:34.215Z,82.22
2023-03-26T04:35:04.050Z,82.74
2023-03-26T04:37:42.193Z,82.69
2023-03-26T04:40:22.205Z,82.39
2023-03-26T04:42:48.803Z,82.29
2023-03-26T04:45:17.786Z,81.95
2023-03-26T04:47:46.445Z,82.37
2023-03-26T04:50:13.392Z,82.83
2023-03-26T04:52:40.967Z,81.69
2023-03-26T04:55:21.268Z,81.66
2023-03-26T04:57:51.440Z,81.80
2023-03-26T05:00:21.364Z,82.27
2023-03-26T05:02:50.862Z,81.42
2023-03-26T05:05:18.145Z,81.67
2023-03-26T05:07:45.240Z,81.22
2023-03-26T05:10:14.763Z,81.88
2023-03-26T05:12:42.086Z,81.58
2023-03-26T05:15:11.416Z,82.24
2023-03-26T05:17:41.654Z,81.80
2023-03-26T05:20:18.282Z,81.64
2023-03-26T05:22:45.009Z,81.28
2023-03-26T05:25:11.588Z,81.56
2023-03-26T05:27:38.627Z,81.62
2023-03-26T05:30:07.319Z,81.81
2023-03-26T05:32:34.683Z,81.35
2023-03-26T05:35:01.736Z,81.10
2023-03-26T05:37:32.163Z,81.34
2023-03-26T05:39:59.876Z,81.48
2023-03-26T05:42:27.046Z,81.62
2023-03-26T05:44:53.590Z,80.84
2023-03-26T05:47:20.458Z,80.45
2023-03-26T05:49:47.211Z,80.38
2023-03-26T05:52:16.189Z,80.18
2023-03-26T05:54:42.905Z,79.71
2023-03-26T05:57:09.570Z,79.06
2023-03-26T05:59:36.678Z,79.43
2023-03-26T06:02:03.600Z,79.20
2023-03-26T06:04:31.916Z,78.92
2023-03-26T06:06:58.736Z,78.43
2023-03-26T06:09:25.424Z,79.52
2023-03-26T06:11:52.013Z,78.60
2023-03-26T06:14:18.592Z,78.94
2023-03-26T06:16:45.128Z,78.35
2023-03-26T06:19:11.852Z,78.20
2023-03-26T06:21:38.669Z,77.73
2023-03-26T06:24:05.572Z,77.99
2023-03-26T06:26:32.507Z,77.62
2023-03-26T06:28:59.048Z,78.05
2023-03-26T06:31:25.698Z,78.04
2023-03-26T06:33:53.247Z,77.33
2023-03-26T06:36:19.924Z,77.09
2023-03-26T06:38:46.569Z,77.55
2023-03-26T06:41:14.368Z,77.26
2023-03-26T06:43:41.063Z,75.90
2023-03-26T06:46:07.778Z,76.73
2023-03-26T06:48:34.518Z,76.75
2023-03-26T06:51:01.123Z,76.40
2023-03-26T06:53:27.740Z,77.09
2023-03-26T06:55:54.661Z,76.26
2023-03-26T06:58:21.891Z,75.02
2023-03-26T07:00:48.542Z,74.86
2023-03-26T07:03:17.210Z,74.70
2023-03-26T07:05:43.905Z,74.70
2023-03-26T07:08:10.587Z,74.71
2023-03-26T07:10:37.233Z,74.39
2023-03-26T07:13:03.862Z,74.47
2023-03-26T07:15:30.742Z,75.27
2023-03-26T07:17:57.341Z,74.98
2023-03-26T07:20:24.717Z,74.97
2023-03-26T07:22:51.886Z,75.24
2023-03-26T07:25:19.549Z,74.71
2023-03-26T07:28:06.534Z,74.58
2023-03-26T07:30:57.835Z,74.81
2023-03-26T07:33:53.722Z,75.18
2023-03-26T07:36:47.539Z,74.42
2023-03-26T07:39:29.420Z,75.06
2023-03-26T07:42:08.536Z,75.18
2023-03-26T07:44:42.245Z,74.87
2023-03-26T07:47:19.839Z,75.24
2023-03-26T07:49:46.663Z,74.69
2023-03-26T07:52:13.378Z,74.38
2023-03-26T07:54:40.575Z,74.28
2023-03-26T07:57:21.090Z,74.32
2023-03-26T08:00:12.415Z,73.84
2023-03-26T08:03:17.474Z,72.88
2023-03-26T08:05:53.273Z,73.03
2023-03-26T08:08:27.137Z,73.49
2023-03-26T08:11:10.031Z,73.31
2023-03-26T08:13:57.944Z,73.05
2023-03-26T08:16:36.764Z,72.30
2023-03-26T08:19:27.624Z,72.23
2023-03-26T08:22:00.386Z,71.89
2023-03-26T08:24:43.485Z,70.01
2023-03-26T08:27:22.105Z,69.14
2023-03-26T08:30:21.725Z,68.32
2023-03-26T08:33:00.221Z,70.00
2023-03-26T08:35:28.437Z,70.91
2023-03-26T08:37:55.409Z,71.59
2023-03-26T08:41:03.767Z,72.40
2023-03-26T08:43:47.697Z,73.08
2023-03-26T08:46:33.900Z,73.01
2023-03-26T08:49:41.181Z,73.76
2023-03-26T08:52:24.590Z,72.69
2023-03-26T08:54:57.398Z,72.51
2023-03-26T08:57:25.285Z,72.47
2023-03-26T09:00:15.698Z,73.06
2023-03-26T09:02:45.049Z,72.98
2023-03-26T09:06:05.765Z,73.47
2023-03-26T09:08:53.854Z,72.50
2023-03-26T09:11:59.995Z,71.90
2023-03-26T09:14:51.506Z,72.33
2023-03-26T09:17:57.737Z,71.52
2023-03-26T09:20:30.962Z,70.26
2023-03-26T09:22:57.460Z,69.93
2023-03-26T09:26:01.825Z,69.13
2023-03-26T09:28:34.610Z,69.07
2023-03-26T09:31:16.812Z,68.63
2023-03-26T09:34:04.976Z,67.57
2023-03-26T09:36:55.549Z,67.88
2023-03-26T09:39:29.790Z,68.93
2023-03-26T09:42:23.130Z,68.14
2023-03-26T09:45:08.985Z,69.14
2023-03-26T09:48:32.297Z,69.44
2023-03-26T09:51:07.800Z,68.78
2023-03-26T09:53:38.548Z,68.58
2023-03-26T09:56:25.780Z,67.01
2023-03-26T09:59:24.880Z,65.42
2023-03-26T10:01:57.700Z,64.92
2023-03-26T10:04:52.027Z,65.25
2023-03-26T10:07:36.562Z,64.71
2023-03-26T10:10:40.255Z,63.94
2023-03-26T10:13:22.009Z,63.95
2023-03-26T10:16:21.355Z,64.68
2023-03-26T10:19:20.135Z,64.91
2023-03-26T10:22:25.772Z,65.39
2023-03-26T10:25:17.402Z,66.04
2023-03-26T10:28:18.347Z,66.98
2023-03-26T10:30:54.274Z,68.39
2023-03-26T10:33:27.205Z,69.01
2023-03-26T10:36:07.992Z,70.22
2023-03-26T10:38:59.580Z,71.86
2023-03-26T10:41:49.431Z,71.44
2023-03-26T10:44:48.578Z,71.22
2023-03-26T10:47:44.181Z,72.27
2023-03-26T10:50:25.891Z,71.84
2023-03-26T10:52:57.343Z,71.16
2023-03-26T10:55:40.259Z,70.55
2023-03-26T10:58:24.003Z,70.78
2023-03-26T11:01:19.802Z,70.67
2023-03-26T11:03:46.404Z,70.86
2023-03-26T11:06:34.516Z,70.91
2023-03-26T11:09:24.589Z,70.38
2023-03-26T11:11:57.030Z,69.94
2023-03-26T11:15:01.708Z,70.17
2023-03-26T11:17:41.680Z,70.12
2023-03-26T11:20:28.953Z,70.31
2023-03-26T11:23:26.071Z,70.47
2023-03-26T11:26:11.150Z,70.71
2023-03-26T11:29:03.128Z,70.80
2023-03-26T11:31:46.177Z,70.47
2023-03-26T11:34:16.684Z,69.85
2023-03-26T11:36:53.622Z,68.31
2023-03-26T11:39:33.142Z,67.59
2023-03-26T11:42:11.215Z,67.68
2023-03-26T11:44:48.070Z,66.95
2023-03-26T11:47:19.429Z,66.83
2023-03-26T11:49:50.089Z,67.13
2023-03-26T11:52:17.027Z,67.98
2023-03-26T11:54:48.180Z,67.54
2023-03-26T11:57:22.729Z,67.39
2023-03-26T12:00:08.007Z,66.59
2023-03-26T12:02:41.463Z,64.34
2023-03-26T12:05:14.724Z,63.00
2023-03-26T12:07:45.851Z,63.57
2023-03-26T12:10:38.788Z,60.07
2023-03-26T12:13:28.199Z,61.41
2023-03-26T12:15:59.851Z,62.47
2023-03-26T12:18:28.297Z,63.06
2023-03-26T12:21:11.706Z,63.39
2023-03-26T12:24:29.424Z,65.46
2023-03-26T12:27:21.087Z,70.91
2023-03-26T12:30:21.533Z,72.39
2023-03-26T12:32:53.036Z,74.27
2023-03-26T12:35:27.335Z,77.60
2023-03-26T12:38:13.959Z,77.01
2023-03-26T12:40:42.625Z,77.83
2023-03-26T12:44:50.482Z,77.79
2023-03-26T12:47:58.452Z,78.05
2023-03-26T12:49:16.413Z,77.75
2023-03-26T12:51:52.939Z,76.19
2023-03-26T12:54:28.896Z,75.44
2023-03-26T12:57:16.867Z,75.47
2023-03-26T13:00:10.796Z,74.62
2023-03-26T13:03:06.835Z,73.76
2023-03-26T13:05:34.144Z,73.55
2023-03-26T13:08:35.094Z,73.52
2023-03-26T13:11:20.850Z,73.84
2023-03-26T13:14:18.565Z,74.86
2023-03-26T13:16:53.154Z,75.31
2023-03-26T13:19:44.978Z,74.29
2023-03-26T13:22:33.069Z,74.36
2023-03-26T13:25:07.528Z,74.91
2023-03-26T13:27:50.219Z,74.88
2023-03-26T13:30:41.561Z,74.45
2023-03-26T13:33:26.451Z,74.27
2023-03-26T13:36:24.198Z,73.88
2023-03-26T13:39:22.511Z,73.61
2023-03-26T13:42:19.900Z,72.81
2023-03-26T13:45:04.312Z,71.95
2023-03-26T13:47:36.897Z,69.45
2023-03-26T13:50:14.844Z,67.39
2023-03-26T13:53:13.230Z,67.24
2023-03-26T13:55:43.701Z,66.40
2023-03-26T13:58:25.735Z,66.55
2023-03-26T14:01:10.090Z,66.23
2023-03-26T14:06:26.749Z,66.28
2023-03-26T14:09:07.550Z,65.93
2023-03-26T14:11:49.366Z,65.79
2023-03-26T14:14:34.833Z,66.11
2023-03-26T14:17:53.600Z,66.60
2023-03-26T14:20:41.979Z,66.86
2023-03-26T14:23:20.547Z,66.61
2023-03-26T14:26:05.716Z,66.08
2023-03-26T14:29:05.838Z,64.84
2023-03-26T14:31:35.485Z,63.95
2023-03-26T14:34:24.340Z,62.12
2023-03-26T14:37:30.068Z,63.43
2023-03-26T14:40:43.261Z,62.16
2023-03-26T14:43:09.793Z,63.24
2023-03-26T14:45:45.194Z,63.70
2023-03-26T14:48:48.268Z,60.74
2023-03-26T14:51:34.007Z,62.38
2023-03-26T14:57:16.581Z,59.96
2023-03-26T15:00:16.659Z,60.89
2023-03-26T15:03:39.964Z,60.19
2023-03-26T15:06:51.075Z,61.43
2023-03-26T15:09:41.808Z,60.89
2023-03-26T15:12:29.863Z,61.11
2023-03-26T15:15:34.477Z,60.29
2023-03-26T15:18:19.282Z,61.40
2023-03-26T15:21:04.169Z,62.29
2023-03-26T15:23:49.010Z,61.80
2023-03-26T15:26:37.992Z,60.62
2023-03-26T15:29:27.116Z,59.99
2023-03-26T15:31:57.617Z,60.30
2023-03-26T15:34:58.604Z,59.86
2023-03-26T15:37:50.372Z,59.01
2023-03-26T15:40:45.591Z,59.13
2023-03-26T15:43:13.110Z,60.01
2023-03-26T15:45:44.080Z,58.84
2023-03-26T15:48:11.540Z,58.44
2023-03-26T15:51:03.087Z,59.09
2023-03-26T15:54:04.131Z,59.67
2023-03-26T15:56:53.165Z,59.98
2023-03-26T15:59:57.513Z,59.55
2023-03-26T16:02:40.282Z,59.97
2023-03-26T16:05:22.166Z,59.42
2023-03-26T16:08:15.010Z,60.42
2023-03-26T16:10:52.963Z,59.99
2023-03-26T16:13:19.645Z,60.97
2023-03-26T16:16:02.102Z,60.68
2023-03-26T16:18:31.129Z,60.73
2023-03-26T16:21:30.439Z,61.82
2023-03-26T16:24:08.229Z,61.71
2023-03-26T16:26:43.938Z,61.54
2023-03-26T16:29:22.354Z,61.94
2023-03-26T16:32:05.868Z,61.96
2023-03-26T16:34:45.114Z,62.08
2023-03-26T16:37:36.535Z,62.96
2023-03-26T16:40:20.856Z,63.68
2023-03-26T16:42:58.266Z,63.92
2023-03-26T16:45:33.214Z,64.35
2023-03-26T16:48:36.594Z,64.44
2023-03-26T16:51:16.066Z,64.46
2023-03-26T16:53:53.512Z,64.74
2023-03-26T16:56:47.579Z,65.43
2023-03-26T16:59:29.489Z,66.08
2023-03-26T17:02:05.189Z,65.70
2023-03-26T17:04:34.441Z,66.20
2023-03-26T17:07:37.725Z,66.13
2023-03-26T17:10:11.995Z,66.89
2023-03-26T17:12:51.090Z,67.05
2023-03-26T17:15:43.440Z,66.57
2023-03-26T17:18:27.680Z,67.19
2023-03-26T17:21:03.978Z,67.77
2023-03-26T17:23:54.147Z,67.99
2023-03-26T17:26:24.113Z,68.27
2023-03-26T17:29:25.836Z,68.26
2023-03-26T17:31:58.551Z,68.92
2023-03-26T17:34:47.118Z,69.49
2023-03-26T17:37:16.925Z,69.71
2023-03-26T17:39:44.029Z,69.67
2023-03-26T17:42:13.839Z,70.36
2023-03-26T17:45:04.289Z,70.63
2023-03-26T17:47:38.510Z,72.97
2023-03-26T17:50:27.172Z,72.58
2023-03-26T17:53:20.455Z,71.56
2023-03-26T17:55:51.349Z,71.54
2023-03-26T17:58:33.887Z,71.58
2023-03-26T18:01:10.071Z,71.87
2023-03-26T18:03:49.375Z,71.87
2023-03-26T18:06:40.701Z,72.52
2023-03-26T18:09:37.268Z,74.48
2023-03-26T18:12:23.812Z,74.02
2023-03-26T18:15:09.144Z,73.16
2023-03-26T18:17:46.048Z,73.94
2023-03-26T18:20:23.319Z,76.35
2023-03-26T18:22:51.738Z,75.17
2023-03-26T18:25:25.357Z,74.32
2023-03-26T18:27:52.997Z,78.58
2023-03-26T18:30:22.698Z,76.76
2023-03-26T18:33:04.470Z,79.58
2023-03-26T18:35:51.850Z,74.81
2023-03-26T18:38:35.083Z,74.28
2023-03-26T18:41:06.562Z,73.48
2023-03-26T18:43:35.633Z,73.66
2023-03-26T18:46:13.790Z,74.03
2023-03-26T18:48:40.897Z,73.89
2023-03-26T18:51:08.162Z,75.77
2023-03-26T18:53:41.044Z,78.10
2023-03-26T18:56:28.795Z,81.36
2023-03-26T18:58:58.317Z,78.23
2023-03-26T19:01:30.772Z,77.71
2023-03-26T19:03:59.981Z,76.98
2023-03-26T19:06:26.796Z,75.37
2023-03-26T19:08:54.679Z,75.67
2023-03-26T19:11:21.644Z,77.38
2023-03-26T19:14:06.995Z,75.71
2023-03-26T19:16:37.153Z,75.37
2023-03-26T19:19:08.022Z,75.47
2023-03-26T19:21:36.247Z,76.05
2023-03-26T19:24:04.598Z,75.93
2023-03-26T19:26:31.671Z,76.02
2023-03-26T19:28:58.660Z,79.05
2023-03-26T19:31:30.379Z,76.85
2023-03-26T19:34:02.745Z,76.48
2023-03-26T19:36:32.437Z,76.42
2023-03-26T19:38:59.125Z,76.45
2023-03-26T19:41:42.217Z,76.33
2023-03-26T19:44:17.940Z,77.20
2023-03-26T19:46:53.820Z,79.07
2023-03-26T19:49:32.546Z,77.67
2023-03-26T19:52:14.863Z,76.95
2023-03-26T19:54:59.684Z,78.05
2023-03-26T19:57:28.134Z,77.28
2023-03-26T19:59:55.500Z,77.29
2023-03-26T20:02:22.766Z,77.38
2023-03-26T20:04:49.703Z,77.03
2023-03-26T20:07:19.622Z,77.23
2023-03-26T20:09:48.732Z,76.89
2023-03-26T20:12:19.861Z,77.78
2023-03-26T20:14:46.493Z,77.01
2023-03-26T20:17:16.131Z,77.04
2023-03-26T20:19:44.612Z,77.60
2023-03-26T20:22:22.151Z,78.08
2023-03-26T20:24:48.822Z,77.80
2023-03-26T20:27:16.130Z,77.67
2023-03-26T20:29:42.688Z,77.79
2023-03-26T20:32:26.456Z,78.02
2023-03-26T20:34:54.198Z,77.91
2023-03-26T20:37:21.070Z,78.88
2023-03-26T20:39:47.682Z,80.41
2023-03-26T20:42:19.160Z,80.96
2023-03-26T20:44:46.160Z,79.13
2023-03-26T20:47:14.254Z,78.09
2023-03-26T20:49:43.125Z,78.32
2023-03-26T20:52:13.551Z,78.27
2023-03-26T20:54:40.235Z,77.87
2023-03-26T20:57:07.281Z,78.68
2023-03-26T20:59:34.630Z,78.69
2023-03-26T21:02:01.393Z,78.73
2023-03-26T21:04:28.089Z,79.00
2023-03-26T21:06:57.863Z,78.68
2023-03-26T21:09:34.510Z,79.27
2023-03-26T21:12:08.356Z,79.52
2023-03-26T21:14:44.245Z,79.38
2023-03-26T21:17:16.156Z,79.48
2023-03-26T21:19:44.358Z,78.96
2023-03-26T21:22:49.024Z,80.51
2023-03-26T21:25:25.715Z,83.16
2023-03-26T21:27:58.228Z,81.12
2023-03-26T21:30:25.754Z,81.72
2023-03-26T21:32:52.440Z,80.89
2023-03-26T21:35:19.669Z,80.40
2023-03-26T21:37:49.698Z,80.27
2023-03-26T21:40:18.007Z,80.35
2023-03-26T21:42:46.840Z,80.93
2023-03-26T21:45:13.710Z,81.32
2023-03-26T21:47:42.027Z,81.88
2023-03-26T21:50:09.942Z,81.90
2023-03-26T21:52:37.259Z,82.09
2023-03-26T21:55:06.532Z,82.27
2023-03-26T21:57:59.250Z,81.76
2023-03-26T22:00:37.188Z,83.25
2023-03-26T22:03:37.515Z,83.83
2023-03-26T22:06:23.037Z,83.26
2023-03-26T22:08:49.752Z,86.54
2023-03-26T22:11:16.311Z,83.65
2023-03-26T22:13:43.629Z,87.37
2023-03-26T22:16:10.715Z,87.03
2023-03-26T22:18:37.365Z,87.10
2023-03-26T22:21:05.887Z,85.75
2023-03-26T22:23:36.093Z,87.31
2023-03-26T22:26:04.291Z,86.51
2023-03-26T22:28:32.308Z,87.36
2023-03-26T22:31:05.956Z,87.17
2023-03-26T22:33:32.534Z,87.40
2023-03-26T22:35:59.354Z,87.47
2023-03-26T22:38:28.480Z,86.73
2023-03-26T22:40:57.151Z,87.05
2023-03-26T22:43:23.994Z,86.83
2023-03-26T22:45:51.513Z,87.17
2023-03-26T22:48:18.305Z,88.59
2023-03-26T22:50:44.888Z,87.68
2023-03-26T22:53:11.700Z,86.67
2023-03-26T22:55:38.290Z,87.19
2023-03-26T22:58:04.820Z,85.71
2023-03-26T23:00:32.425Z,86.45
2023-03-26T23:03:00.589Z,86.91
2023-03-26T23:05:27.835Z,86.96
2023-03-26T23:07:54.359Z,86.99
2023-03-26T23:10:21.744Z,87.71
2023-03-26T23:12:48.642Z,86.45
2023-03-26T23:15:15.169Z,86.26
2023-03-26T23:17:42.309Z,85.67
2023-03-26T23:20:14.906Z,85.29
2023-03-26T23:22:42.962Z,86.94
2023-03-26T23:25:11.289Z,85.71
2023-03-26T23:27:38.241Z,86.26
2023-03-26T23:30:05.517Z,86.84
2023-03-26T23:32:33.025Z,87.39
2023-03-26T23:34:59.588Z,85.66
2023-03-26T23:37:26.252Z,85.40
2023-03-26T23:39:52.870Z,86.01
2023-03-26T23:42:28.698Z,85.58
2023-03-26T23:44:57.263Z,85.28
2023-03-26T23:47:24.305Z,85.09
2023-03-26T23:49:51.329Z,84.43
2023-03-26T23:52:18.228Z,84.22
2023-03-26T23:54:45.564Z,84.36
2023-03-26T23:57:12.247Z,84.41
2023-03-26T23:59:41.550Z,84.59
